Launceston Airport, Tasmania

11:42 AM AEST on July 31, 2016 (GMT +1000)
8 Drummond Crescent | | Change Station

Elev 545 ft 41.58 °S, 147.17 °E | Updated 12 minutes ago

Clear
Clear
53.2 °F
Feels Like 53.2 °F
N
6.0
Wind Variable Wind from NNW
Gusts 14.0 mph

Today
High -- | Low -- °F
--% Chance of Precip.
Yesterday
High -- | Low -- °F
Precip. -- in
Pressure 29.80 in
Visibility 6.2 miles
Clouds
Dew Point 42 °F
Humidity 66%
Rainfall 0.13 in
Snow Depth Not available.
7:20 AM 5:15 PM
Waning Crescent, 9% visible
METAR YMLT 310130Z AUTO 33008KT 9999 // NCD 12/05 Q1009
Pressure 29.80 in
Visibility 6.2 miles
Clouds
Dew Point 42 °F
Humidity 66%
Rainfall 0.13 in
Snow Depth Not available.
7:20 AM 5:15 PM
Waning Crescent, 9% visible
METAR YMLT 310130Z AUTO 33008KT 9999 // NCD 12/05 Q1009

10-Day Weather Forecast

No radar image for this location.
×

Almanac

Astronomy

Jul. 31, 2016 Rise Set
Actual Time
Civil Twilight
Nautical Twilight
Astronomical Twilight
Moon
Length of Visible Light
Length of Day
Tomorrow will be .
, % of the Moon is Illuminated

Today's Extremes

Country Highs Country Lows

Community

WunderPhotos

Upload Photos

1,928,702 photos uploaded!

WunderBlog® & News

Nearby

Air Quality

  Air Quality AQ Index Pollutant
Not available.

Snow Depth

Station Depth Elevation

Earthquake Activity

City Distance Mag. Time & Date
Minimum magnitude displayed is 2.5.

Coastal Water Temperatures

Place Temperature

Stations

Nearby Weather Stations

Station Location Temp. Windchill Dew Point Humidity Wind Precip. Elev Updated Type